sensor_id;sensor_type;location;lat;lon;timestamp;temperature;humidity
43338;DHT22;28933;52.492;13.434;2023-11-19T00:02:05;7.40;99.70
43338;DHT22;28933;52.492;13.434;2023-11-19T01:48:45;7.30;99.60
43338;DHT22;28933;52.492;13.434;2023-11-19T01:51:31;7.40;99.60
43338;DHT22;28933;52.492;13.434;2023-11-19T01:54:17;7.30;99.50
43338;DHT22;28933;52.492;13.434;2023-11-19T01:57:04;7.40;99.50
43338;DHT22;28933;52.492;13.434;2023-11-19T01:59:53;7.40;99.50
43338;DHT22;28933;52.492;13.434;2023-11-19T02:02:40;7.40;99.50
43338;DHT22;28933;52.492;13.434;2023-11-19T02:05:26;7.50;99.50
43338;DHT22;28933;52.492;13.434;2023-11-19T02:08:12;7.40;99.50
43338;DHT22;28933;52.492;13.434;2023-11-19T02:10:59;7.40;99.50
43338;DHT22;28933;52.492;13.434;2023-11-19T02:13:45;7.40;99.60
43338;DHT22;28933;52.492;13.434;2023-11-19T02:16:31;7.40;99.60
43338;DHT22;28933;52.492;13.434;2023-11-19T02:19:20;7.40;99.70
43338;DHT22;28933;52.492;13.434;2023-11-19T02:22:06;7.40;99.80
43338;DHT22;28933;52.492;13.434;2023-11-19T02:24:57;7.30;99.80
43338;DHT22;28933;52.492;13.434;2023-11-19T02:27:59;7.40;99.80
43338;DHT22;28933;52.492;13.434;2023-11-19T02:30:46;7.40;99.80
43338;DHT22;28933;52.492;13.434;2023-11-19T02:33:32;7.40;99.70
43338;DHT22;28933;52.492;13.434;2023-11-19T02:36:18;7.40;99.80
43338;DHT22;28933;52.492;13.434;2023-11-19T02:39:03;7.40;99.80
43338;DHT22;28933;52.492;13.434;2023-11-19T02:41:54;7.40;99.80
43338;DHT22;28933;52.492;13.434;2023-11-19T02:44:44;7.40;99.80
43338;DHT22;28933;52.492;13.434;2023-11-19T02:47:30;7.40;99.80
43338;DHT22;28933;52.492;13.434;2023-11-19T02:50:18;7.40;99.80
43338;DHT22;28933;52.492;13.434;2023-11-19T02:53:10;7.40;99.80
43338;DHT22;28933;52.492;13.434;2023-11-19T02:55:56;7.40;99.90
43338;DHT22;28933;52.492;13.434;2023-11-19T02:58:55;7.50;99.90
43338;DHT22;28933;52.492;13.434;2023-11-19T03:01:41;7.50;99.90
43338;DHT22;28933;52.492;13.434;2023-11-19T03:04:29;7.50;99.90
43338;DHT22;28933;52.492;13.434;2023-11-19T03:07:16;7.50;99.90
43338;DHT22;28933;52.492;13.434;2023-11-19T03:10:03;7.50;99.90
43338;DHT22;28933;52.492;13.434;2023-11-19T03:12:51;7.50;99.80
43338;DHT22;28933;52.492;13.434;2023-11-19T03:15:37;7.50;99.90
43338;DHT22;28933;52.492;13.434;2023-11-19T03:18:23;7.50;99.80
43338;DHT22;28933;52.492;13.434;2023-11-19T03:21:09;7.50;99.80
43338;DHT22;28933;52.492;13.434;2023-11-19T03:23:55;7.60;99.90
43338;DHT22;28933;52.492;13.434;2023-11-19T03:26:41;7.60;99.90
43338;DHT22;28933;52.492;13.434;2023-11-19T03:29:28;7.60;99.90
43338;DHT22;28933;52.492;13.434;2023-11-19T03:32:14;7.70;99.90
43338;DHT22;28933;52.492;13.434;2023-11-19T03:35:01;7.70;99.90
43338;DHT22;28933;52.492;13.434;2023-11-19T03:37:47;7.70;99.90
43338;DHT22;28933;52.492;13.434;2023-11-19T03:40:33;7.60;99.90
43338;DHT22;28933;52.492;13.434;2023-11-19T03:43:19;7.60;99.90
43338;DHT22;28933;52.492;13.434;2023-11-19T03:46:21;7.70;99.90
43338;DHT22;28933;52.492;13.434;2023-11-19T03:49:07;7.60;99.90
43338;DHT22;28933;52.492;13.434;2023-11-19T03:51:53;7.60;99.90
43338;DHT22;28933;52.492;13.434;2023-11-19T03:54:39;7.60;99.90
43338;DHT22;28933;52.492;13.434;2023-11-19T03:57:25;7.50;99.90
43338;DHT22;28933;52.492;13.434;2023-11-19T04:00:11;7.50;99.90
43338;DHT22;28933;52.492;13.434;2023-11-19T04:02:59;7.50;99.90
43338;DHT22;28933;52.492;13.434;2023-11-19T04:05:46;7.50;99.90
43338;DHT22;28933;52.492;13.434;2023-11-19T04:08:32;7.40;99.90
43338;DHT22;28933;52.492;13.434;2023-11-19T04:11:18;7.40;99.90
43338;DHT22;28933;52.492;13.434;2023-11-19T04:14:04;7.40;99.90
43338;DHT22;28933;52.492;13.434;2023-11-19T04:16:50;7.40;99.90
43338;DHT22;28933;52.492;13.434;2023-11-19T04:19:36;7.40;99.90
43338;DHT22;28933;52.492;13.434;2023-11-19T04:22:23;7.40;99.90
43338;DHT22;28933;52.492;13.434;2023-11-19T04:25:09;7.40;99.90
43338;DHT22;28933;52.492;13.434;2023-11-19T04:27:55;7.40;99.90
43338;DHT22;28933;52.492;13.434;2023-11-19T04:30:41;7.40;99.90
43338;DHT22;28933;52.492;13.434;2023-11-19T04:33:26;7.40;99.90
43338;DHT22;28933;52.492;13.434;2023-11-19T04:36:12;7.40;99.90
43338;DHT22;28933;52.492;13.434;2023-11-19T04:39:00;7.40;99.90
43338;DHT22;28933;52.492;13.434;2023-11-19T04:41:50;7.40;99.90
43338;DHT22;28933;52.492;13.434;2023-11-19T04:44:37;7.40;99.90
43338;DHT22;28933;52.492;13.434;2023-11-19T04:47:23;7.40;99.90
43338;DHT22;28933;52.492;13.434;2023-11-19T04:50:09;7.30;99.90
43338;DHT22;28933;52.492;13.434;2023-11-19T04:52:56;7.40;99.90
43338;DHT22;28933;52.492;13.434;2023-11-19T04:55:42;7.40;99.90
43338;DHT22;28933;52.492;13.434;2023-11-19T04:58:29;7.40;99.90
43338;DHT22;28933;52.492;13.434;2023-11-19T05:01:15;7.40;99.90
43338;DHT22;28933;52.492;13.434;2023-11-19T05:04:03;7.30;99.90
43338;DHT22;28933;52.492;13.434;2023-11-19T05:06:49;7.30;99.90
43338;DHT22;28933;52.492;13.434;2023-11-19T05:09:35;7.30;99.90
43338;DHT22;28933;52.492;13.434;2023-11-19T05:12:21;7.30;99.90
43338;DHT22;28933;52.492;13.434;2023-11-19T05:15:08;7.30;99.90
43338;DHT22;28933;52.492;13.434;2023-11-19T05:17:54;7.30;99.90
43338;DHT22;28933;52.492;13.434;2023-11-19T05:20:40;7.30;99.90
43338;DHT22;28933;52.492;13.434;2023-11-19T05:23:26;7.30;99.90
43338;DHT22;28933;52.492;13.434;2023-11-19T05:26:20;7.30;99.90
43338;DHT22;28933;52.492;13.434;2023-11-19T05:29:06;7.30;99.90
43338;DHT22;28933;52.492;13.434;2023-11-19T05:31:52;7.30;99.90
43338;DHT22;28933;52.492;13.434;2023-11-19T05:34:38;7.30;99.90
43338;DHT22;28933;52.492;13.434;2023-11-19T05:37:24;7.30;99.90
43338;DHT22;28933;52.492;13.434;2023-11-19T05:40:10;7.30;99.90
43338;DHT22;28933;52.492;13.434;2023-11-19T05:43:03;7.30;99.90
43338;DHT22;28933;52.492;13.434;2023-11-19T05:45:49;7.30;99.90
43338;DHT22;28933;52.492;13.434;2023-11-19T05:48:35;7.30;99.90
43338;DHT22;28933;52.492;13.434;2023-11-19T05:51:20;7.30;99.90
43338;DHT22;28933;52.492;13.434;2023-11-19T05:54:10;7.20;99.90
43338;DHT22;28933;52.492;13.434;2023-11-19T05:56:56;7.30;99.90
43338;DHT22;28933;52.492;13.434;2023-11-19T05:59:43;7.30;99.90
43338;DHT22;28933;52.492;13.434;2023-11-19T06:02:29;7.20;99.90
43338;DHT22;28933;52.492;13.434;2023-11-19T06:05:15;7.30;99.90
43338;DHT22;28933;52.492;13.434;2023-11-19T06:08:01;7.30;99.90
43338;DHT22;28933;52.492;13.434;2023-11-19T06:10:47;7.30;99.90
43338;DHT22;28933;52.492;13.434;2023-11-19T06:13:36;7.30;99.90
43338;DHT22;28933;52.492;13.434;2023-11-19T06:16:22;7.20;99.90
43338;DHT22;28933;52.492;13.434;2023-11-19T06:19:08;7.30;99.90
43338;DHT22;28933;52.492;13.434;2023-11-19T06:21:55;7.30;99.90
43338;DHT22;28933;52.492;13.434;2023-11-19T06:24:41;7.30;99.90
43338;DHT22;28933;52.492;13.434;2023-11-19T06:27:27;7.30;99.90
43338;DHT22;28933;52.492;13.434;2023-11-19T06:30:13;7.40;99.90
43338;DHT22;28933;52.492;13.434;2023-11-19T06:32:59;7.40;99.90
43338;DHT22;28933;52.492;13.434;2023-11-19T06:35:46;7.40;99.90
43338;DHT22;28933;52.492;13.434;2023-11-19T06:38:32;7.40;99.90
43338;DHT22;28933;52.492;13.434;2023-11-19T06:41:17;7.40;99.90
43338;DHT22;28933;52.492;13.434;2023-11-19T06:44:04;7.40;99.90
43338;DHT22;28933;52.492;13.434;2023-11-19T06:46:50;7.40;99.90
43338;DHT22;28933;52.492;13.434;2023-11-19T06:49:36;7.40;99.90
43338;DHT22;28933;52.492;13.434;2023-11-19T06:52:22;7.40;99.90
43338;DHT22;28933;52.492;13.434;2023-11-19T06:55:09;7.40;99.90
43338;DHT22;28933;52.492;13.434;2023-11-19T06:57:55;7.40;99.90
43338;DHT22;28933;52.492;13.434;2023-11-19T07:00:41;7.40;99.90
43338;DHT22;28933;52.492;13.434;2023-11-19T07:03:27;7.40;99.90
43338;DHT22;28933;52.492;13.434;2023-11-19T07:06:13;7.40;99.90
43338;DHT22;28933;52.492;13.434;2023-11-19T07:08:59;7.40;99.90
43338;DHT22;28933;52.492;13.434;2023-11-19T07:11:45;7.50;99.90
43338;DHT22;28933;52.492;13.434;2023-11-19T07:14:32;7.50;99.90
43338;DHT22;28933;52.492;13.434;2023-11-19T07:17:18;7.50;99.90
43338;DHT22;28933;52.492;13.434;2023-11-19T07:20:06;7.60;99.90
43338;DHT22;28933;52.492;13.434;2023-11-19T07:22:52;7.60;99.90
43338;DHT22;28933;52.492;13.434;2023-11-19T07:25:38;7.60;99.90
43338;DHT22;28933;52.492;13.434;2023-11-19T07:28:24;7.60;99.90
43338;DHT22;28933;52.492;13.434;2023-11-19T07:31:10;7.60;99.90
43338;DHT22;28933;52.492;13.434;2023-11-19T07:33:56;7.60;99.90
43338;DHT22;28933;52.492;13.434;2023-11-19T07:36:42;7.70;99.90
43338;DHT22;28933;52.492;13.434;2023-11-19T07:39:29;7.70;99.90
43338;DHT22;28933;52.492;13.434;2023-11-19T07:42:15;7.70;99.90
43338;DHT22;28933;52.492;13.434;2023-11-19T07:45:01;7.60;99.90
43338;DHT22;28933;52.492;13.434;2023-11-19T07:47:47;7.70;99.90
43338;DHT22;28933;52.492;13.434;2023-11-19T07:50:32;7.70;99.90
43338;DHT22;28933;52.492;13.434;2023-11-19T07:53:19;7.80;99.90
43338;DHT22;28933;52.492;13.434;2023-11-19T07:56:05;7.80;99.90
43338;DHT22;28933;52.492;13.434;2023-11-19T07:58:51;7.80;99.90
43338;DHT22;28933;52.492;13.434;2023-11-19T08:01:38;7.80;99.90
43338;DHT22;28933;52.492;13.434;2023-11-19T08:04:24;7.90;99.90
43338;DHT22;28933;52.492;13.434;2023-11-19T08:07:10;7.90;99.90
43338;DHT22;28933;52.492;13.434;2023-11-19T08:09:56;8.00;99.90
43338;DHT22;28933;52.492;13.434;2023-11-19T08:12:42;8.00;99.90
43338;DHT22;28933;52.492;13.434;2023-11-19T08:15:28;8.00;99.90
43338;DHT22;28933;52.492;13.434;2023-11-19T08:18:14;8.10;99.90
43338;DHT22;28933;52.492;13.434;2023-11-19T08:21:00;8.10;99.90
43338;DHT22;28933;52.492;13.434;2023-11-19T08:23:46;8.20;99.90
43338;DHT22;28933;52.492;13.434;2023-11-19T08:26:32;8.20;99.90
43338;DHT22;28933;52.492;13.434;2023-11-19T08:29:18;8.30;99.90
43338;DHT22;28933;52.492;13.434;2023-11-19T08:32:04;8.30;99.90
43338;DHT22;28933;52.492;13.434;2023-11-19T08:34:50;8.40;99.90
43338;DHT22;28933;52.492;13.434;2023-11-19T08:37:36;8.40;99.90
43338;DHT22;28933;52.492;13.434;2023-11-19T08:40:23;8.60;99.90
43338;DHT22;28933;52.492;13.434;2023-11-19T08:43:09;8.50;99.90
43338;DHT22;28933;52.492;13.434;2023-11-19T08:45:55;8.60;99.90
43338;DHT22;28933;52.492;13.434;2023-11-19T08:48:41;8.60;99.90
43338;DHT22;28933;52.492;13.434;2023-11-19T08:51:27;8.70;99.90
43338;DHT22;28933;52.492;13.434;2023-11-19T08:54:14;8.80;99.90
43338;DHT22;28933;52.492;13.434;2023-11-19T08:57:00;8.80;99.90
43338;DHT22;28933;52.492;13.434;2023-11-19T08:59:46;8.90;99.90
43338;DHT22;28933;52.492;13.434;2023-11-19T09:02:32;9.00;99.90
43338;DHT22;28933;52.492;13.434;2023-11-19T09:05:18;9.10;99.90
43338;DHT22;28933;52.492;13.434;2023-11-19T09:08:04;9.10;99.90
43338;DHT22;28933;52.492;13.434;2023-11-19T09:10:50;9.20;99.90
43338;DHT22;28933;52.492;13.434;2023-11-19T09:13:37;9.20;99.90
43338;DHT22;28933;52.492;13.434;2023-11-19T09:16:23;9.30;99.90
43338;DHT22;28933;52.492;13.434;2023-11-19T09:19:09;9.30;99.90
43338;DHT22;28933;52.492;13.434;2023-11-19T09:21:55;9.40;99.90
43338;DHT22;28933;52.492;13.434;2023-11-19T09:24:41;9.50;99.90
43338;DHT22;28933;52.492;13.434;2023-11-19T09:27:29;9.50;99.90
43338;DHT22;28933;52.492;13.434;2023-11-19T09:30:15;9.60;99.90
43338;DHT22;28933;52.492;13.434;2023-11-19T09:33:02;9.70;99.90
43338;DHT22;28933;52.492;13.434;2023-11-19T09:35:48;9.80;99.90
43338;DHT22;28933;52.492;13.434;2023-11-19T09:38:35;9.90;99.90
43338;DHT22;28933;52.492;13.434;2023-11-19T09:41:24;10.00;99.90
43338;DHT22;28933;52.492;13.434;2023-11-19T09:44:11;10.20;99.90
43338;DHT22;28933;52.492;13.434;2023-11-19T09:46:58;10.30;99.90
43338;DHT22;28933;52.492;13.434;2023-11-19T09:49:45;10.40;99.90
43338;DHT22;28933;52.492;13.434;2023-11-19T09:52:31;10.50;99.90
43338;DHT22;28933;52.492;13.434;2023-11-19T09:55:17;10.50;99.90
43338;DHT22;28933;52.492;13.434;2023-11-19T09:58:03;10.60;99.90
43338;DHT22;28933;52.492;13.434;2023-11-19T10:00:50;10.70;99.90
43338;DHT22;28933;52.492;13.434;2023-11-19T10:03:38;10.80;99.90
43338;DHT22;28933;52.492;13.434;2023-11-19T10:06:25;10.90;99.90
43338;DHT22;28933;52.492;13.434;2023-11-19T10:09:12;11.00;99.90
43338;DHT22;28933;52.492;13.434;2023-11-19T10:12:00;11.10;99.90
43338;DHT22;28933;52.492;13.434;2023-11-19T10:14:48;11.20;99.90
43338;DHT22;28933;52.492;13.434;2023-11-19T10:17:34;11.30;99.90
43338;DHT22;28933;52.492;13.434;2023-11-19T10:20:20;11.30;99.90
43338;DHT22;28933;52.492;13.434;2023-11-19T10:23:06;11.40;99.90
43338;DHT22;28933;52.492;13.434;2023-11-19T10:25:53;11.40;99.90
43338;DHT22;28933;52.492;13.434;2023-11-19T10:28:40;11.40;99.90
43338;DHT22;28933;52.492;13.434;2023-11-19T10:31:31;11.50;99.90
43338;DHT22;28933;52.492;13.434;2023-11-19T10:34:27;11.50;99.90
43338;DHT22;28933;52.492;13.434;2023-11-19T10:37:28;11.60;99.90
43338;DHT22;28933;52.492;13.434;2023-11-19T10:40:15;11.70;99.90
43338;DHT22;28933;52.492;13.434;2023-11-19T10:43:02;11.70;99.90
43338;DHT22;28933;52.492;13.434;2023-11-19T10:45:49;11.80;99.90
43338;DHT22;28933;52.492;13.434;2023-11-19T10:48:35;11.90;99.90
43338;DHT22;28933;52.492;13.434;2023-11-19T10:51:21;12.00;99.90
43338;DHT22;28933;52.492;13.434;2023-11-19T10:54:09;12.10;99.90
43338;DHT22;28933;52.492;13.434;2023-11-19T10:56:59;12.20;99.90
43338;DHT22;28933;52.492;13.434;2023-11-19T10:59:47;12.30;99.90
43338;DHT22;28933;52.492;13.434;2023-11-19T11:02:40;12.40;99.90
43338;DHT22;28933;52.492;13.434;2023-11-19T11:05:28;12.50;99.90
43338;DHT22;28933;52.492;13.434;2023-11-19T11:08:15;12.60;99.90
43338;DHT22;28933;52.492;13.434;2023-11-19T11:11:02;12.70;99.90
43338;DHT22;28933;52.492;13.434;2023-11-19T11:13:50;12.70;99.90
43338;DHT22;28933;52.492;13.434;2023-11-19T11:16:38;12.70;99.90
43338;DHT22;28933;52.492;13.434;2023-11-19T11:19:26;12.70;99.90
43338;DHT22;28933;52.492;13.434;2023-11-19T11:22:14;12.70;99.90
43338;DHT22;28933;52.492;13.434;2023-11-19T11:28:08;12.70;99.90
43338;DHT22;28933;52.492;13.434;2023-11-19T11:37:28;12.80;99.90
43338;DHT22;28933;52.492;13.434;2023-11-19T11:40:16;12.80;99.90
43338;DHT22;28933;52.492;13.434;2023-11-19T11:43:03;12.70;99.90
43338;DHT22;28933;52.492;13.434;2023-11-19T11:45:50;12.80;99.90
43338;DHT22;28933;52.492;13.434;2023-11-19T11:48:44;12.90;99.90
43338;DHT22;28933;52.492;13.434;2023-11-19T11:54:31;13.00;99.90
43338;DHT22;28933;52.492;13.434;2023-11-19T11:57:17;13.00;99.90
43338;DHT22;28933;52.492;13.434;2023-11-19T12:00:04;13.10;99.90
43338;DHT22;28933;52.492;13.434;2023-11-19T12:02:57;13.10;99.90
43338;DHT22;28933;52.492;13.434;2023-11-19T12:05:47;13.20;99.90
43338;DHT22;28933;52.492;13.434;2023-11-19T12:08:34;13.30;99.90
43338;DHT22;28933;52.492;13.434;2023-11-19T12:11:21;13.30;99.90
43338;DHT22;28933;52.492;13.434;2023-11-19T12:14:09;13.40;99.90
43338;DHT22;28933;52.492;13.434;2023-11-19T12:17:03;13.40;99.90
43338;DHT22;28933;52.492;13.434;2023-11-19T12:20:00;13.40;99.90
43338;DHT22;28933;52.492;13.434;2023-11-19T12:22:47;13.50;99.90
43338;DHT22;28933;52.492;13.434;2023-11-19T12:25:34;13.50;99.90
43338;DHT22;28933;52.492;13.434;2023-11-19T12:28:21;13.60;99.90
43338;DHT22;28933;52.492;13.434;2023-11-19T12:31:09;13.60;99.90
43338;DHT22;28933;52.492;13.434;2023-11-19T12:33:55;13.60;99.90
43338;DHT22;28933;52.492;13.434;2023-11-19T12:36:42;13.60;99.90
43338;DHT22;28933;52.492;13.434;2023-11-19T12:39:31;13.60;99.90
43338;DHT22;28933;52.492;13.434;2023-11-19T12:42:17;13.70;99.90
43338;DHT22;28933;52.492;13.434;2023-11-19T12:45:04;13.70;99.90
43338;DHT22;28933;52.492;13.434;2023-11-19T12:47:50;13.60;99.90
43338;DHT22;28933;52.492;13.434;2023-11-19T12:50:56;13.60;99.90
43338;DHT22;28933;52.492;13.434;2023-11-19T12:53:48;13.60;99.90
43338;DHT22;28933;52.492;13.434;2023-11-19T12:56:35;13.60;99.90
43338;DHT22;28933;52.492;13.434;2023-11-19T12:59:23;13.60;99.90
43338;DHT22;28933;52.492;13.434;2023-11-19T13:02:09;13.60;99.90
43338;DHT22;28933;52.492;13.434;2023-11-19T13:04:55;13.60;99.90
43338;DHT22;28933;52.492;13.434;2023-11-19T13:07:42;13.60;99.90
43338;DHT22;28933;52.492;13.434;2023-11-19T13:10:28;13.60;99.90
43338;DHT22;28933;52.492;13.434;2023-11-19T13:13:14;13.50;99.90
43338;DHT22;28933;52.492;13.434;2023-11-19T13:16:04;13.50;99.90
43338;DHT22;28933;52.492;13.434;2023-11-19T13:18:53;13.50;99.90
43338;DHT22;28933;52.492;13.434;2023-11-19T13:21:39;13.50;99.90
43338;DHT22;28933;52.492;13.434;2023-11-19T13:24:25;13.50;99.90
43338;DHT22;28933;52.492;13.434;2023-11-19T13:27:11;13.50;99.90
43338;DHT22;28933;52.492;13.434;2023-11-19T13:29:57;13.50;99.90
43338;DHT22;28933;52.492;13.434;2023-11-19T13:32:44;13.50;99.90
43338;DHT22;28933;52.492;13.434;2023-11-19T13:35:31;13.50;99.90
43338;DHT22;28933;52.492;13.434;2023-11-19T13:38:17;13.40;99.90
43338;DHT22;28933;52.492;13.434;2023-11-19T13:41:04;13.40;99.90
43338;DHT22;28933;52.492;13.434;2023-11-19T13:43:50;13.50;99.90
43338;DHT22;28933;52.492;13.434;2023-11-19T13:46:36;13.40;99.90
43338;DHT22;28933;52.492;13.434;2023-11-19T13:49:22;13.40;99.90
43338;DHT22;28933;52.492;13.434;2023-11-19T13:52:08;13.50;99.90
43338;DHT22;28933;52.492;13.434;2023-11-19T13:54:54;13.50;99.90
43338;DHT22;28933;52.492;13.434;2023-11-19T13:57:41;13.50;99.90
43338;DHT22;28933;52.492;13.434;2023-11-19T14:00:27;13.50;99.90
43338;DHT22;28933;52.492;13.434;2023-11-19T14:03:13;13.50;99.90
43338;DHT22;28933;52.492;13.434;2023-11-19T14:05:59;13.50;99.90
43338;DHT22;28933;52.492;13.434;2023-11-19T14:08:46;13.60;99.90
43338;DHT22;28933;52.492;13.434;2023-11-19T14:11:32;13.60;99.90
43338;DHT22;28933;52.492;13.434;2023-11-19T14:14:18;13.60;99.90
43338;DHT22;28933;52.492;13.434;2023-11-19T14:17:04;13.60;99.90
43338;DHT22;28933;52.492;13.434;2023-11-19T14:19:50;13.60;99.90
43338;DHT22;28933;52.492;13.434;2023-11-19T14:22:36;13.60;99.90
43338;DHT22;28933;52.492;13.434;2023-11-19T14:25:22;13.60;99.90
43338;DHT22;28933;52.492;13.434;2023-11-19T14:28:09;13.60;99.90
43338;DHT22;28933;52.492;13.434;2023-11-19T14:30:55;13.60;99.90
43338;DHT22;28933;52.492;13.434;2023-11-19T14:33:42;13.60;99.90
43338;DHT22;28933;52.492;13.434;2023-11-19T14:36:28;13.60;99.90
43338;DHT22;28933;52.492;13.434;2023-11-19T14:39:14;13.60;99.90
43338;DHT22;28933;52.492;13.434;2023-11-19T14:42:00;13.60;99.90
43338;DHT22;28933;52.492;13.434;2023-11-19T14:44:50;13.60;99.90
43338;DHT22;28933;52.492;13.434;2023-11-19T14:47:38;13.60;99.90
43338;DHT22;28933;52.492;13.434;2023-11-19T14:50:24;13.60;99.90
43338;DHT22;28933;52.492;13.434;2023-11-19T14:53:10;13.60;99.90
43338;DHT22;28933;52.492;13.434;2023-11-19T14:55:56;13.50;99.90
43338;DHT22;28933;52.492;13.434;2023-11-19T14:58:42;13.50;99.90
43338;DHT22;28933;52.492;13.434;2023-11-19T15:01:30;13.50;99.90
43338;DHT22;28933;52.492;13.434;2023-11-19T15:04:16;13.50;99.90
43338;DHT22;28933;52.492;13.434;2023-11-19T15:07:03;13.40;99.90
43338;DHT22;28933;52.492;13.434;2023-11-19T15:09:50;13.40;99.90
43338;DHT22;28933;52.492;13.434;2023-11-19T15:12:39;13.40;99.90
43338;DHT22;28933;52.492;13.434;2023-11-19T15:19:08;13.40;99.90
43338;DHT22;28933;52.492;13.434;2023-11-19T15:21:54;13.40;99.90
43338;DHT22;28933;52.492;13.434;2023-11-19T15:24:40;13.40;99.90
43338;DHT22;28933;52.492;13.434;2023-11-19T15:27:27;13.30;99.90
43338;DHT22;28933;52.492;13.434;2023-11-19T15:30:13;13.40;99.90
43338;DHT22;28933;52.492;13.434;2023-11-19T15:32:59;13.30;99.90
43338;DHT22;28933;52.492;13.434;2023-11-19T15:35:45;13.30;99.90
43338;DHT22;28933;52.492;13.434;2023-11-19T15:38:31;13.30;99.90
43338;DHT22;28933;52.492;13.434;2023-11-19T15:41:17;13.30;99.90
43338;DHT22;28933;52.492;13.434;2023-11-19T15:44:03;13.30;99.90
43338;DHT22;28933;52.492;13.434;2023-11-19T15:46:49;13.30;99.90
43338;DHT22;28933;52.492;13.434;2023-11-19T15:49:35;13.20;99.90
43338;DHT22;28933;52.492;13.434;2023-11-19T15:52:22;13.20;99.90
43338;DHT22;28933;52.492;13.434;2023-11-19T15:55:08;13.20;99.90
43338;DHT22;28933;52.492;13.434;2023-11-19T15:57:54;13.20;99.90
43338;DHT22;28933;52.492;13.434;2023-11-19T16:00:40;13.20;99.90
43338;DHT22;28933;52.492;13.434;2023-11-19T16:03:31;13.20;99.90
43338;DHT22;28933;52.492;13.434;2023-11-19T16:06:18;13.20;99.90
43338;DHT22;28933;52.492;13.434;2023-11-19T16:09:04;13.20;99.90
43338;DHT22;28933;52.492;13.434;2023-11-19T16:11:51;13.20;99.90
43338;DHT22;28933;52.492;13.434;2023-11-19T16:14:37;13.20;99.90
43338;DHT22;28933;52.492;13.434;2023-11-19T16:17:23;13.10;99.90
43338;DHT22;28933;52.492;13.434;2023-11-19T16:20:09;13.20;99.90
43338;DHT22;28933;52.492;13.434;2023-11-19T16:22:56;13.10;99.90
43338;DHT22;28933;52.492;13.434;2023-11-19T16:25:45;13.20;99.90
43338;DHT22;28933;52.492;13.434;2023-11-19T16:28:31;13.20;99.90
43338;DHT22;28933;52.492;13.434;2023-11-19T16:31:16;13.20;99.90
43338;DHT22;28933;52.492;13.434;2023-11-19T16:34:03;13.10;99.90
43338;DHT22;28933;52.492;13.434;2023-11-19T16:36:50;13.10;99.90
43338;DHT22;28933;52.492;13.434;2023-11-19T16:39:36;13.20;99.90
43338;DHT22;28933;52.492;13.434;2023-11-19T16:42:22;13.20;99.90
43338;DHT22;28933;52.492;13.434;2023-11-19T16:45:09;13.20;99.90
43338;DHT22;28933;52.492;13.434;2023-11-19T16:47:55;13.20;99.90
43338;DHT22;28933;52.492;13.434;2023-11-19T16:50:41;13.20;99.90
43338;DHT22;28933;52.492;13.434;2023-11-19T16:53:26;13.20;99.90
43338;DHT22;28933;52.492;13.434;2023-11-19T16:56:13;13.20;99.90
43338;DHT22;28933;52.492;13.434;2023-11-19T16:59:00;13.20;99.90
43338;DHT22;28933;52.492;13.434;2023-11-19T17:01:46;13.20;99.90
43338;DHT22;28933;52.492;13.434;2023-11-19T17:04:33;13.20;99.90
43338;DHT22;28933;52.492;13.434;2023-11-19T17:07:19;13.20;99.90
43338;DHT22;28933;52.492;13.434;2023-11-19T17:10:05;13.10;99.90
43338;DHT22;28933;52.492;13.434;2023-11-19T17:12:52;13.10;99.90
43338;DHT22;28933;52.492;13.434;2023-11-19T17:15:38;13.10;99.90
43338;DHT22;28933;52.492;13.434;2023-11-19T17:18:24;13.10;99.90
43338;DHT22;28933;52.492;13.434;2023-11-19T17:21:10;13.10;99.90
43338;DHT22;28933;52.492;13.434;2023-11-19T17:23:56;13.10;99.90
43338;DHT22;28933;52.492;13.434;2023-11-19T17:26:42;13.10;99.90
43338;DHT22;28933;52.492;13.434;2023-11-19T17:29:29;13.10;99.90
43338;DHT22;28933;52.492;13.434;2023-11-19T17:32:15;13.10;99.90
43338;DHT22;28933;52.492;13.434;2023-11-19T17:35:01;13.00;99.90
43338;DHT22;28933;52.492;13.434;2023-11-19T17:37:47;13.00;99.90
43338;DHT22;28933;52.492;13.434;2023-11-19T17:40:33;13.00;99.90
43338;DHT22;28933;52.492;13.434;2023-11-19T17:43:19;13.00;99.90
43338;DHT22;28933;52.492;13.434;2023-11-19T17:46:05;13.00;99.90
43338;DHT22;28933;52.492;13.434;2023-11-19T17:48:51;13.00;99.90
43338;DHT22;28933;52.492;13.434;2023-11-19T17:51:37;13.00;99.90
43338;DHT22;28933;52.492;13.434;2023-11-19T17:54:23;13.00;99.90
43338;DHT22;28933;52.492;13.434;2023-11-19T17:57:09;12.90;99.90
43338;DHT22;28933;52.492;13.434;2023-11-19T17:59:55;12.90;99.90
43338;DHT22;28933;52.492;13.434;2023-11-19T18:02:43;12.90;99.90
43338;DHT22;28933;52.492;13.434;2023-11-19T18:05:37;12.90;99.90
43338;DHT22;28933;52.492;13.434;2023-11-19T18:08:42;12.90;99.90
43338;DHT22;28933;52.492;13.434;2023-11-19T18:11:28;12.80;99.90
43338;DHT22;28933;52.492;13.434;2023-11-19T18:14:14;12.80;99.90
43338;DHT22;28933;52.492;13.434;2023-11-19T18:17:00;12.80;99.90
43338;DHT22;28933;52.492;13.434;2023-11-19T18:19:46;12.70;99.90
43338;DHT22;28933;52.492;13.434;2023-11-19T18:22:32;12.70;99.90
43338;DHT22;28933;52.492;13.434;2023-11-19T18:25:18;12.70;99.90
43338;DHT22;28933;52.492;13.434;2023-11-19T18:28:04;12.70;99.90
43338;DHT22;28933;52.492;13.434;2023-11-19T18:30:51;12.70;99.90
43338;DHT22;28933;52.492;13.434;2023-11-19T18:33:37;12.70;99.90
43338;DHT22;28933;52.492;13.434;2023-11-19T18:36:23;12.60;99.90
43338;DHT22;28933;52.492;13.434;2023-11-19T18:39:09;12.60;99.90
43338;DHT22;28933;52.492;13.434;2023-11-19T18:41:55;12.60;99.90
43338;DHT22;28933;52.492;13.434;2023-11-19T18:44:41;12.60;99.90
43338;DHT22;28933;52.492;13.434;2023-11-19T18:47:27;12.60;99.90
43338;DHT22;28933;52.492;13.434;2023-11-19T18:50:13;12.60;99.90
43338;DHT22;28933;52.492;13.434;2023-11-19T18:52:59;12.60;99.90
43338;DHT22;28933;52.492;13.434;2023-11-19T18:55:45;12.50;99.90
43338;DHT22;28933;52.492;13.434;2023-11-19T18:58:31;12.50;99.90
43338;DHT22;28933;52.492;13.434;2023-11-19T19:01:17;12.50;99.90
43338;DHT22;28933;52.492;13.434;2023-11-19T19:04:04;12.50;99.90
43338;DHT22;28933;52.492;13.434;2023-11-19T19:06:52;12.50;99.90
43338;DHT22;28933;52.492;13.434;2023-11-19T19:09:38;12.50;99.90
43338;DHT22;28933;52.492;13.434;2023-11-19T19:12:24;12.50;99.90
43338;DHT22;28933;52.492;13.434;2023-11-19T19:15:10;12.50;99.90
43338;DHT22;28933;52.492;13.434;2023-11-19T19:17:59;12.50;99.90
43338;DHT22;28933;52.492;13.434;2023-11-19T19:20:45;12.50;99.90
43338;DHT22;28933;52.492;13.434;2023-11-19T19:23:31;12.50;99.90
43338;DHT22;28933;52.492;13.434;2023-11-19T19:26:17;12.50;99.90